createdAt,value
2022-10-30T00:02:08.469Z,64.39
2022-10-30T00:04:38.058Z,64.47
2022-10-30T00:07:07.581Z,63.97
2022-10-30T00:09:37.113Z,64.66
2022-10-30T00:12:07.454Z,64.27
2022-10-30T00:14:38.988Z,64.37
2022-10-30T00:17:09.008Z,64.42
2022-10-30T00:19:38.685Z,64.15
2022-10-30T00:24:36.598Z,64.59
2022-10-30T00:27:06.164Z,64.86
2022-10-30T00:29:35.778Z,64.96
2022-10-30T00:32:06.920Z,64.76
2022-10-30T00:34:36.406Z,65.25
2022-10-30T00:37:05.941Z,64.97
2022-10-30T00:39:35.487Z,65.55
2022-10-30T00:42:05.089Z,65.08
2022-10-30T00:44:38.711Z,65.88
2022-10-30T00:47:14.151Z,65.14
2022-10-30T00:49:49.741Z,65.67
2022-10-30T00:52:20.736Z,64.98
2022-10-30T00:54:50.544Z,65.43
2022-10-30T00:57:20.369Z,65.27
2022-10-30T00:59:50.649Z,66.11
2022-10-30T01:02:22.669Z,65.66
2022-10-30T01:04:52.415Z,66.07
2022-10-30T01:07:22.388Z,65.51
2022-10-30T01:09:51.985Z,66.02
2022-10-30T01:12:22.161Z,65.55
2022-10-30T01:14:54.540Z,65.55
2022-10-30T01:17:35.244Z,64.94
2022-10-30T01:20:12.423Z,64.88
2022-10-30T01:22:51.533Z,64.97
2022-10-30T01:25:27.970Z,64.80
2022-10-30T01:28:00.246Z,64.91
2022-10-30T01:30:34.881Z,64.83
2022-10-30T01:33:13.965Z,65.37
2022-10-30T01:35:48.657Z,65.13
2022-10-30T01:38:20.601Z,65.11
2022-10-30T01:40:50.169Z,65.41
2022-10-30T01:43:19.690Z,66.44
2022-10-30T01:46:00.732Z,66.08
2022-10-30T01:48:53.702Z,66.14
2022-10-30T01:51:28.536Z,65.66
2022-10-30T01:54:02.909Z,65.80
2022-10-30T01:56:38.788Z,66.18
2022-10-30T01:59:12.363Z,65.55
2022-10-30T02:01:42.384Z,65.23
2022-10-30T02:04:14.344Z,65.98
2022-10-30T02:06:44.325Z,66.94
2022-10-30T02:09:16.036Z,65.98
2022-10-30T02:11:48.920Z,65.39
2022-10-30T02:14:21.388Z,66.43
2022-10-30T02:16:52.926Z,66.07
2022-10-30T02:19:23.828Z,66.00
2022-10-30T02:21:54.817Z,65.94
2022-10-30T02:24:24.460Z,67.00
2022-10-30T02:26:53.979Z,66.33
2022-10-30T02:29:23.475Z,67.52
2022-10-30T02:31:53.200Z,66.92
2022-10-30T02:34:22.943Z,67.29
2022-10-30T02:36:52.440Z,67.02
2022-10-30T02:39:23.363Z,68.08
2022-10-30T02:41:52.964Z,67.94
2022-10-30T02:44:22.552Z,67.87
2022-10-30T02:46:52.121Z,67.43
2022-10-30T02:49:21.729Z,68.46
2022-10-30T02:51:51.289Z,67.67
2022-10-30T02:54:20.875Z,67.52
2022-10-30T02:56:51.765Z,67.27
2022-10-30T02:59:21.676Z,68.07
2022-10-30T03:01:51.445Z,67.75
2022-10-30T03:04:21.047Z,68.00
2022-10-30T03:06:50.517Z,68.15
2022-10-30T03:09:20.036Z,67.32
2022-10-30T03:11:51.672Z,67.93
2022-10-30T03:14:22.300Z,67.52
2022-10-30T03:16:52.743Z,68.38
2022-10-30T03:19:22.263Z,67.72
2022-10-30T03:21:51.857Z,68.59
2022-10-30T03:24:21.601Z,68.00
2022-10-30T03:26:52.526Z,68.10
2022-10-30T03:29:22.076Z,67.73
2022-10-30T03:31:51.740Z,68.13
2022-10-30T03:34:21.272Z,68.84
2022-10-30T03:36:51.020Z,68.91
2022-10-30T03:39:20.612Z,68.85
2022-10-30T03:41:50.383Z,69.72
2022-10-30T03:44:21.276Z,69.79
2022-10-30T03:46:50.833Z,69.39
2022-10-30T03:49:20.326Z,69.08
2022-10-30T03:51:49.901Z,68.46
2022-10-30T03:54:19.597Z,68.43
2022-10-30T03:56:49.377Z,69.65
2022-10-30T03:59:18.964Z,69.05
2022-10-30T04:01:50.248Z,68.41
2022-10-30T04:04:19.997Z,68.90
2022-10-30T04:06:49.550Z,68.77
2022-10-30T04:09:19.084Z,69.20
2022-10-30T04:11:49.993Z,69.47
2022-10-30T04:14:19.933Z,69.28
2022-10-30T04:16:51.300Z,69.01
2022-10-30T04:19:20.865Z,68.17
2022-10-30T04:21:51.338Z,68.41
2022-10-30T04:24:20.843Z,68.74
2022-10-30T04:26:50.637Z,68.35
2022-10-30T04:29:20.732Z,68.69
2022-10-30T04:31:51.719Z,69.39
2022-10-30T04:34:21.572Z,69.07
2022-10-30T04:36:51.117Z,69.00
2022-10-30T04:39:21.237Z,69.46
2022-10-30T04:41:50.869Z,69.34
2022-10-30T04:44:20.514Z,69.37
2022-10-30T04:46:52.616Z,69.51
2022-10-30T04:49:22.169Z,68.87
2022-10-30T04:51:51.901Z,68.47
2022-10-30T04:54:22.155Z,68.69
2022-10-30T04:56:51.771Z,69.03
2022-10-30T04:59:21.300Z,68.52
2022-10-30T05:01:52.267Z,68.84
2022-10-30T05:04:22.246Z,69.07
2022-10-30T05:06:51.761Z,69.36
2022-10-30T05:09:21.264Z,69.30
2022-10-30T05:11:52.997Z,69.39
2022-10-30T05:14:24.919Z,69.53
2022-10-30T05:16:56.285Z,69.23
2022-10-30T05:19:26.039Z,68.89
2022-10-30T05:21:55.681Z,68.59
2022-10-30T05:24:25.153Z,69.13
2022-10-30T05:26:54.662Z,68.89
2022-10-30T05:29:25.502Z,69.26
2022-10-30T05:31:56.405Z,68.18
2022-10-30T05:34:25.893Z,68.55
2022-10-30T05:36:55.509Z,68.44
2022-10-30T05:39:25.115Z,68.19
2022-10-30T05:41:54.754Z,68.07
2022-10-30T05:44:40.603Z,67.89
2022-10-30T05:47:15.464Z,67.58
2022-10-30T05:49:44.981Z,67.91
2022-10-30T05:52:14.650Z,67.56
2022-10-30T05:54:44.198Z,67.68
2022-10-30T05:57:33.162Z,67.28
2022-10-30T06:00:02.742Z,67.76
2022-10-30T06:02:34.295Z,68.20
2022-10-30T06:05:04.246Z,67.50
2022-10-30T06:07:34.026Z,67.45
2022-10-30T06:10:03.541Z,67.27
2022-10-30T06:12:33.113Z,67.30
2022-10-30T06:15:02.647Z,66.39
2022-10-30T06:17:32.292Z,66.27
2022-10-30T06:20:03.232Z,66.42
2022-10-30T06:22:32.894Z,66.66
2022-10-30T06:25:02.866Z,65.78
2022-10-30T06:27:35.499Z,66.07
2022-10-30T06:30:05.354Z,65.79
2022-10-30T06:32:35.001Z,65.84
2022-10-30T06:35:06.499Z,65.61
2022-10-30T06:37:40.286Z,64.83
2022-10-30T06:40:10.501Z,65.19
2022-10-30T06:42:43.264Z,65.58
2022-10-30T06:45:13.234Z,65.03
2022-10-30T06:47:43.216Z,64.38
2022-10-30T06:50:15.034Z,64.69
2022-10-30T06:52:44.809Z,64.94
2022-10-30T06:55:14.344Z,64.62
2022-10-30T06:57:45.178Z,63.68
2022-10-30T07:00:15.069Z,63.89
2022-10-30T07:02:45.968Z,63.74
2022-10-30T07:05:17.240Z,63.98
2022-10-30T07:07:47.029Z,63.45
2022-10-30T07:10:16.673Z,63.28
2022-10-30T07:12:53.985Z,63.64
2022-10-30T07:15:24.388Z,62.87
2022-10-30T07:17:55.442Z,63.09
2022-10-30T07:20:26.756Z,62.56
2022-10-30T07:22:56.488Z,61.57
2022-10-30T07:25:26.009Z,60.18
2022-10-30T07:27:56.585Z,59.96
2022-10-30T07:33:02.791Z,60.55
2022-10-30T07:35:34.636Z,59.38
2022-10-30T07:38:05.169Z,58.99
2022-10-30T07:40:34.961Z,58.55
2022-10-30T07:43:05.488Z,58.56
2022-10-30T07:45:35.266Z,57.82
2022-10-30T07:48:05.062Z,57.90
2022-10-30T07:50:36.211Z,57.69
2022-10-30T07:53:05.854Z,57.05
2022-10-30T07:55:35.462Z,56.63
2022-10-30T07:58:05.042Z,56.74
2022-10-30T08:00:34.782Z,55.96
2022-10-30T08:03:04.259Z,55.78
2022-10-30T08:05:33.890Z,56.35
2022-10-30T08:08:05.034Z,55.71
2022-10-30T08:10:34.886Z,55.83
2022-10-30T08:13:05.309Z,55.75
2022-10-30T08:15:35.301Z,55.89
2022-10-30T08:18:06.220Z,55.40
2022-10-30T08:20:36.149Z,55.60
2022-10-30T08:23:07.181Z,54.38
2022-10-30T08:25:36.763Z,53.70
2022-10-30T08:28:07.585Z,53.68
2022-10-30T08:30:38.094Z,53.42
2022-10-30T08:33:08.748Z,52.87
2022-10-30T08:35:38.353Z,52.70
2022-10-30T08:38:09.301Z,52.34
2022-10-30T08:40:39.060Z,51.84
2022-10-30T08:43:09.308Z,52.08
2022-10-30T08:45:39.065Z,51.38
2022-10-30T08:48:11.488Z,50.97
2022-10-30T08:50:41.557Z,50.37
2022-10-30T08:53:14.740Z,50.96
2022-10-30T08:55:44.516Z,51.03
2022-10-30T08:58:13.998Z,49.94
2022-10-30T09:00:43.636Z,50.07
2022-10-30T09:03:13.146Z,49.71
2022-10-30T09:05:42.709Z,49.28
2022-10-30T09:08:13.577Z,49.05
2022-10-30T09:10:43.123Z,49.10
2022-10-30T09:13:13.312Z,49.16
2022-10-30T09:15:43.767Z,49.17
2022-10-30T09:18:13.270Z,49.23
2022-10-30T09:20:42.774Z,49.30
2022-10-30T09:23:13.710Z,48.55
2022-10-30T09:25:43.323Z,48.70
2022-10-30T09:28:12.857Z,48.37
2022-10-30T09:30:42.476Z,47.87
2022-10-30T09:33:12.052Z,47.91
2022-10-30T09:35:41.534Z,47.80
2022-10-30T09:38:11.464Z,47.60
2022-10-30T09:40:50.118Z,47.62
2022-10-30T09:43:24.974Z,47.47
2022-10-30T09:46:08.537Z,47.37
2022-10-30T09:48:46.702Z,47.17
2022-10-30T09:51:26.627Z,47.13
2022-10-30T09:54:01.819Z,47.03
2022-10-30T09:56:33.918Z,46.55
2022-10-30T09:59:09.298Z,46.47
2022-10-30T10:01:43.361Z,46.40
2022-10-30T10:04:25.631Z,47.24
2022-10-30T10:07:03.946Z,47.61
2022-10-30T10:09:34.958Z,47.57
2022-10-30T10:12:09.577Z,47.32
2022-10-30T10:14:42.827Z,46.22
2022-10-30T10:17:14.594Z,45.55
2022-10-30T10:19:49.366Z,45.02
2022-10-30T10:22:21.747Z,44.57
2022-10-30T10:24:51.866Z,44.29
2022-10-30T10:27:28.163Z,43.87
2022-10-30T10:30:02.306Z,45.01
2022-10-30T10:32:53.432Z,45.36
2022-10-30T10:35:38.280Z,45.07
2022-10-30T10:38:12.839Z,45.09
2022-10-30T10:40:49.659Z,45.18
2022-10-30T10:43:26.892Z,46.01
2022-10-30T10:46:01.055Z,45.82
2022-10-30T10:48:36.401Z,45.62
2022-10-30T10:51:07.740Z,45.30
2022-10-30T10:53:42.013Z,44.94
2022-10-30T10:56:11.742Z,45.45
2022-10-30T10:58:46.083Z,44.24
2022-10-30T11:01:18.388Z,44.37
2022-10-30T11:03:52.051Z,43.11
2022-10-30T11:06:22.459Z,43.42
2022-10-30T11:08:53.809Z,42.65
2022-10-30T11:11:24.869Z,42.52
2022-10-30T11:13:56.720Z,42.80
2022-10-30T11:16:34.569Z,44.34
2022-10-30T11:19:05.936Z,44.58
2022-10-30T11:21:39.396Z,43.51
2022-10-30T11:24:26.428Z,43.14
2022-10-30T11:26:57.850Z,44.08
2022-10-30T11:29:29.857Z,43.87
2022-10-30T11:32:03.003Z,43.90
2022-10-30T11:34:34.069Z,42.39
2022-10-30T11:37:04.459Z,42.26
2022-10-30T11:39:34.598Z,42.07
2022-10-30T11:42:08.458Z,41.94
2022-10-30T11:44:40.423Z,42.31
2022-10-30T11:47:11.072Z,43.13
2022-10-30T11:49:44.832Z,43.21
2022-10-30T11:52:15.384Z,43.30
2022-10-30T11:54:46.358Z,43.69
2022-10-30T11:57:22.485Z,44.00
2022-10-30T11:59:58.198Z,43.04
2022-10-30T12:02:31.188Z,43.00
2022-10-30T12:05:02.472Z,43.32
2022-10-30T12:07:32.411Z,43.49
2022-10-30T12:10:03.151Z,43.36
2022-10-30T12:12:39.559Z,43.38
2022-10-30T12:15:12.663Z,43.07
2022-10-30T12:17:51.779Z,42.19
2022-10-30T12:20:21.802Z,42.75
2022-10-30T12:22:51.553Z,42.69
2022-10-30T12:25:24.480Z,43.08
2022-10-30T12:28:00.706Z,42.97
2022-10-30T12:30:32.203Z,42.07
2022-10-30T12:33:05.299Z,42.63
2022-10-30T12:35:40.555Z,42.98
2022-10-30T12:38:15.205Z,43.69
2022-10-30T12:40:47.988Z,43.72
2022-10-30T12:43:19.957Z,44.05
2022-10-30T12:45:52.220Z,44.38
2022-10-30T12:48:24.772Z,44.88
2022-10-30T12:51:03.633Z,43.98
2022-10-30T12:53:35.849Z,42.25
2022-10-30T12:56:10.189Z,41.05
2022-10-30T12:58:42.864Z,39.79
2022-10-30T13:01:17.756Z,40.19
2022-10-30T13:03:50.177Z,40.66
2022-10-30T13:06:22.153Z,40.96
2022-10-30T13:08:59.233Z,41.90
2022-10-30T13:11:33.857Z,41.75
2022-10-30T13:14:05.118Z,40.91
2022-10-30T13:16:36.636Z,40.64
2022-10-30T13:19:07.181Z,40.61
2022-10-30T13:21:40.760Z,40.45
2022-10-30T13:24:12.718Z,41.00
2022-10-30T13:26:45.356Z,41.17
2022-10-30T13:29:21.382Z,42.44
2022-10-30T13:32:04.676Z,41.19
2022-10-30T13:34:40.303Z,41.75
2022-10-30T13:37:14.541Z,42.43
2022-10-30T13:39:47.982Z,42.35
2022-10-30T13:42:26.261Z,42.88
2022-10-30T13:45:02.921Z,43.39
2022-10-30T13:47:38.767Z,44.32
2022-10-30T13:50:23.308Z,43.78
2022-10-30T13:52:55.537Z,44.28
2022-10-30T13:55:27.061Z,44.75
2022-10-30T13:57:59.713Z,44.60
2022-10-30T14:00:35.650Z,44.98
2022-10-30T14:03:13.804Z,44.82
2022-10-30T14:05:47.779Z,45.37
2022-10-30T14:08:22.883Z,45.50
2022-10-30T14:10:57.541Z,45.84
2022-10-30T14:13:44.964Z,46.36
2022-10-30T14:16:32.552Z,47.16
2022-10-30T14:19:03.930Z,47.67
2022-10-30T14:21:38.914Z,47.22
2022-10-30T14:24:14.190Z,47.73
2022-10-30T14:26:52.594Z,47.83
2022-10-30T14:29:38.541Z,48.03
2022-10-30T14:32:27.009Z,48.19
2022-10-30T14:35:01.054Z,48.22
2022-10-30T14:37:49.011Z,48.82
2022-10-30T14:40:38.755Z,49.41
2022-10-30T14:43:11.153Z,49.57
2022-10-30T14:45:46.276Z,49.24
2022-10-30T14:48:19.963Z,49.24
2022-10-30T14:51:01.414Z,49.64
2022-10-30T14:53:35.428Z,50.21
2022-10-30T14:56:08.011Z,50.14
2022-10-30T14:58:38.205Z,50.45
2022-10-30T15:01:27.216Z,50.79
2022-10-30T15:04:05.448Z,50.91
2022-10-30T15:06:38.817Z,50.94
2022-10-30T15:09:11.921Z,51.21
2022-10-30T15:11:53.169Z,51.40
2022-10-30T15:14:40.673Z,51.43
2022-10-30T15:17:22.489Z,51.84
2022-10-30T15:19:52.313Z,51.99
2022-10-30T15:22:24.513Z,51.72
2022-10-30T15:24:54.712Z,52.23
2022-10-30T15:27:25.009Z,52.54
2022-10-30T15:29:57.342Z,52.59
2022-10-30T15:32:26.943Z,53.23
2022-10-30T15:35:00.005Z,52.81
2022-10-30T15:37:31.232Z,53.17
2022-10-30T15:40:10.700Z,53.65
2022-10-30T15:42:40.633Z,53.58
2022-10-30T15:45:17.095Z,53.78
2022-10-30T15:47:49.048Z,53.71
2022-10-30T15:50:21.705Z,54.45
2022-10-30T15:52:54.018Z,54.22
2022-10-30T15:55:27.440Z,54.27
2022-10-30T15:58:03.822Z,54.65
2022-10-30T16:00:35.783Z,54.13
2022-10-30T16:03:06.405Z,54.67
2022-10-30T16:05:36.166Z,54.58
2022-10-30T16:08:12.048Z,55.18
2022-10-30T16:10:43.581Z,54.94
2022-10-30T16:13:17.501Z,55.61
2022-10-30T16:15:48.471Z,55.65
2022-10-30T16:18:20.132Z,55.63
2022-10-30T16:20:51.041Z,55.86
2022-10-30T16:23:22.813Z,55.90
2022-10-30T16:25:55.321Z,56.30
2022-10-30T16:28:26.200Z,56.76
2022-10-30T16:30:57.625Z,56.45
2022-10-30T16:33:28.343Z,56.62
2022-10-30T16:35:58.274Z,56.70
2022-10-30T16:38:32.453Z,56.89
2022-10-30T16:41:02.419Z,57.19
2022-10-30T16:43:33.211Z,56.67
2022-10-30T16:46:21.460Z,57.37
2022-10-30T16:48:55.769Z,57.13
2022-10-30T16:51:25.676Z,57.52
2022-10-30T16:53:56.622Z,57.29
2022-10-30T16:56:27.609Z,57.22
2022-10-30T16:59:06.378Z,57.90
2022-10-30T17:01:36.437Z,57.56
2022-10-30T17:04:06.431Z,57.67
2022-10-30T17:06:39.909Z,57.65
2022-10-30T17:09:11.722Z,56.91
2022-10-30T17:11:45.921Z,57.41
2022-10-30T17:14:20.371Z,56.77
2022-10-30T17:16:55.146Z,56.97
2022-10-30T17:19:46.321Z,56.94
2022-10-30T17:22:17.189Z,56.73
2022-10-30T17:24:48.635Z,56.80
2022-10-30T17:27:29.663Z,56.49
2022-10-30T17:30:00.627Z,56.67
2022-10-30T17:32:42.636Z,56.08
2022-10-30T17:35:14.381Z,55.61
2022-10-30T17:37:44.115Z,54.71
2022-10-30T17:40:15.235Z,54.78
2022-10-30T17:42:44.932Z,54.53
2022-10-30T17:45:15.185Z,54.76
2022-10-30T17:47:44.858Z,55.26
2022-10-30T17:50:14.480Z,54.81
2022-10-30T17:52:43.997Z,54.41
2022-10-30T17:55:23.996Z,53.85
2022-10-30T17:57:53.834Z,53.60
2022-10-30T18:00:23.352Z,53.92
2022-10-30T18:02:52.872Z,53.59
2022-10-30T18:05:26.590Z,53.42
2022-10-30T18:07:56.622Z,53.24
2022-10-30T18:10:27.528Z,53.14
2022-10-30T18:12:57.421Z,53.23
2022-10-30T18:15:29.267Z,53.22
2022-10-30T18:17:59.247Z,53.40
2022-10-30T18:20:29.277Z,53.26
2022-10-30T18:22:59.347Z,53.45
2022-10-30T18:25:32.703Z,53.41
2022-10-30T18:28:02.435Z,53.39
2022-10-30T18:30:31.973Z,53.57
2022-10-30T18:33:02.130Z,53.70
2022-10-30T18:35:34.030Z,53.87
2022-10-30T18:38:03.857Z,53.43
2022-10-30T18:40:34.917Z,53.52
2022-10-30T18:43:04.431Z,53.61
2022-10-30T18:45:35.346Z,53.48
2022-10-30T18:48:05.047Z,53.66
2022-10-30T18:50:35.501Z,53.73
2022-10-30T18:53:05.654Z,53.71
2022-10-30T18:55:37.767Z,54.00
2022-10-30T18:58:08.456Z,53.98
2022-10-30T19:00:58.034Z,54.05
2022-10-30T19:03:28.313Z,54.02
2022-10-30T19:05:58.176Z,54.17
2022-10-30T19:08:27.900Z,54.07
2022-10-30T19:10:58.860Z,54.26
2022-10-30T19:13:28.824Z,54.34
2022-10-30T19:16:01.024Z,54.59
2022-10-30T19:18:32.708Z,54.67
2022-10-30T19:21:05.147Z,54.65
2022-10-30T19:23:35.969Z,54.59
2022-10-30T19:26:07.066Z,54.55
2022-10-30T19:28:38.306Z,54.89
2022-10-30T19:31:08.369Z,54.73
2022-10-30T19:33:37.836Z,54.87
2022-10-30T19:36:07.793Z,54.74
2022-10-30T19:38:37.472Z,54.76
2022-10-30T19:41:10.175Z,55.09
2022-10-30T19:43:39.868Z,54.89
2022-10-30T19:46:09.920Z,55.04
2022-10-30T19:51:29.536Z,55.15
2022-10-30T19:53:59.089Z,55.30
2022-10-30T19:56:30.033Z,55.38
2022-10-30T19:58:59.552Z,55.30
2022-10-30T20:01:29.186Z,55.55
2022-10-30T20:03:58.809Z,55.38
2022-10-30T20:06:28.387Z,55.54
2022-10-30T20:08:57.932Z,55.31
2022-10-30T20:11:27.439Z,55.72
2022-10-30T20:13:58.868Z,55.80
2022-10-30T20:16:28.888Z,55.74
2022-10-30T20:18:58.471Z,55.90
2022-10-30T20:21:28.496Z,55.72
2022-10-30T20:23:58.132Z,56.05
2022-10-30T20:26:28.367Z,56.19
2022-10-30T20:29:01.357Z,56.13
2022-10-30T20:31:31.627Z,56.03
2022-10-30T20:34:01.434Z,56.24
2022-10-30T20:36:30.951Z,56.07
2022-10-30T20:39:00.500Z,56.15
2022-10-30T20:41:30.395Z,56.24
2022-10-30T20:44:01.318Z,56.58
2022-10-30T20:46:32.183Z,56.59
2022-10-30T20:49:12.248Z,56.45
2022-10-30T20:51:47.859Z,56.37
2022-10-30T20:54:17.950Z,56.22
2022-10-30T20:56:47.414Z,56.17
2022-10-30T20:59:18.450Z,55.91
2022-10-30T21:01:48.139Z,55.81
2022-10-30T21:04:17.781Z,55.78
2022-10-30T21:06:47.323Z,56.18
2022-10-30T21:09:17.178Z,56.27
2022-10-30T21:11:46.699Z,56.20
2022-10-30T21:14:16.476Z,56.31
2022-10-30T21:16:53.866Z,56.21
2022-10-30T21:19:23.577Z,56.38
2022-10-30T21:21:53.337Z,56.13
2022-10-30T21:24:22.883Z,56.15
2022-10-30T21:26:52.813Z,56.09
2022-10-30T21:29:22.281Z,55.87
2022-10-30T21:31:53.275Z,55.25
2022-10-30T21:34:22.786Z,55.94
2022-10-30T21:36:52.320Z,55.86
2022-10-30T21:39:21.872Z,55.38
2022-10-30T21:41:51.405Z,55.23
2022-10-30T21:44:22.259Z,54.86
2022-10-30T21:46:53.169Z,54.62
2022-10-30T21:49:22.835Z,54.63
2022-10-30T21:51:52.340Z,55.00
2022-10-30T21:54:22.345Z,54.58
2022-10-30T21:56:51.917Z,54.67
2022-10-30T21:59:21.421Z,54.94
2022-10-30T22:01:50.946Z,54.84
2022-10-30T22:04:21.925Z,54.94
2022-10-30T22:06:51.465Z,54.94
2022-10-30T22:09:20.971Z,55.13
2022-10-30T22:11:51.372Z,55.42
2022-10-30T22:14:21.249Z,55.22
2022-10-30T22:16:51.489Z,55.21
2022-10-30T22:19:22.525Z,55.20
2022-10-30T22:21:52.124Z,55.71
2022-10-30T22:24:21.852Z,55.26
2022-10-30T22:26:51.352Z,55.00
2022-10-30T22:29:20.974Z,55.25
2022-10-30T22:31:50.706Z,55.45
2022-10-30T22:34:20.211Z,55.37
2022-10-30T22:36:51.327Z,55.35
2022-10-30T22:39:21.268Z,55.27
2022-10-30T22:41:50.757Z,55.25
2022-10-30T22:44:20.276Z,55.06
2022-10-30T22:46:50.092Z,55.56
2022-10-30T22:49:19.578Z,55.69
2022-10-30T22:51:49.129Z,55.72
2022-10-30T22:54:20.017Z,55.64
2022-10-30T22:56:49.508Z,55.77
2022-10-30T22:59:19.002Z,55.72
2022-10-30T23:01:51.956Z,55.94
2022-10-30T23:04:21.492Z,56.31
2022-10-30T23:06:50.968Z,56.31
2022-10-30T23:09:22.306Z,56.41
2022-10-30T23:11:55.516Z,56.20
2022-10-30T23:14:25.576Z,56.61
2022-10-30T23:16:55.449Z,56.68
2022-10-30T23:19:26.481Z,56.59
2022-10-30T23:21:56.447Z,57.25
2022-10-30T23:24:27.480Z,57.55
2022-10-30T23:26:56.989Z,57.82
2022-10-30T23:29:26.555Z,57.93
2022-10-30T23:31:56.084Z,58.07
2022-10-30T23:34:25.616Z,58.34
2022-10-30T23:36:59.193Z,58.56
2022-10-30T23:39:32.613Z,58.45
2022-10-30T23:42:02.145Z,58.57
2022-10-30T23:44:31.666Z,58.47
2022-10-30T23:47:01.400Z,58.44
2022-10-30T23:49:34.022Z,58.41
2022-10-30T23:52:03.995Z,58.18
2022-10-30T23:54:34.878Z,58.10
2022-10-30T23:57:04.512Z,58.21
2022-10-30T23:59:34.041Z,58.55
